createdAt,value
2022-12-14T00:00:49.144Z,8.65
2022-12-14T00:05:06.584Z,8.60
2022-12-14T00:09:23.458Z,8.52
2022-12-14T00:13:42.376Z,8.53
2022-12-14T00:18:00.219Z,8.51
2022-12-14T00:22:17.296Z,8.55
2022-12-14T00:26:34.344Z,8.53
2022-12-14T00:30:58.689Z,8.41
2022-12-14T00:35:17.899Z,8.02
2022-12-14T00:39:34.884Z,7.88
2022-12-14T00:43:51.845Z,8.53
2022-12-14T00:48:08.901Z,8.78
2022-12-14T00:52:25.703Z,8.62
2022-12-14T00:56:43.039Z,8.59
2022-12-14T01:01:03.424Z,8.55
2022-12-14T01:05:20.550Z,8.45
2022-12-14T01:09:37.462Z,8.54
2022-12-14T01:13:56.518Z,8.53
2022-12-14T01:18:13.381Z,8.53
2022-12-14T01:22:30.525Z,8.58
2022-12-14T01:26:47.411Z,8.49
2022-12-14T01:31:11.389Z,8.54
2022-12-14T01:35:28.523Z,8.49
2022-12-14T01:39:46.544Z,8.49
2022-12-14T01:44:23.680Z,8.53
2022-12-14T01:48:40.632Z,8.41
2022-12-14T01:53:06.142Z,8.47
2022-12-14T01:57:35.926Z,8.35
2022-12-14T02:01:54.205Z,8.39
2022-12-14T02:06:26.801Z,8.17
2022-12-14T02:10:45.507Z,7.81
2022-12-14T02:15:03.201Z,7.78
2022-12-14T02:19:22.583Z,8.54
2022-12-14T02:23:50.623Z,8.59
2022-12-14T02:28:19.896Z,8.53
2022-12-14T02:33:54.165Z,8.52
2022-12-14T02:38:44.507Z,8.51
2022-12-14T02:43:18.273Z,8.56
2022-12-14T02:48:01.226Z,8.60
2022-12-14T02:52:42.718Z,8.58
2022-12-14T02:57:17.850Z,8.60
2022-12-14T03:01:36.962Z,8.58
2022-12-14T03:05:59.297Z,8.53
2022-12-14T03:10:37.401Z,8.53
2022-12-14T03:14:56.207Z,8.51
2022-12-14T03:19:23.780Z,8.61
2022-12-14T03:23:44.083Z,8.59
2022-12-14T03:28:23.366Z,8.61
2022-12-14T03:32:48.040Z,8.49
2022-12-14T03:37:20.746Z,8.48
2022-12-14T03:42:05.133Z,8.44
2022-12-14T03:46:46.328Z,7.87
2022-12-14T03:51:34.610Z,7.71
2022-12-14T03:56:13.194Z,8.58
2022-12-14T04:00:35.694Z,8.66
2022-12-14T04:05:12.537Z,8.61
2022-12-14T04:09:57.973Z,8.54
2022-12-14T04:14:41.278Z,8.51
2022-12-14T04:19:06.486Z,8.64
2022-12-14T04:23:51.725Z,8.57
2022-12-14T04:28:36.044Z,8.52
2022-12-14T04:32:58.489Z,8.61
2022-12-14T04:37:19.827Z,8.61
2022-12-14T04:41:43.868Z,8.59
2022-12-14T04:46:35.165Z,8.69
2022-12-14T04:51:15.367Z,8.73
2022-12-14T04:55:54.142Z,8.61
2022-12-14T05:00:12.290Z,8.65
2022-12-14T05:05:25.290Z,8.70
2022-12-14T05:10:03.812Z,8.64
2022-12-14T05:14:40.020Z,8.68
2022-12-14T05:18:57.358Z,8.78
2022-12-14T05:23:15.050Z,8.79
2022-12-14T05:27:32.173Z,8.72
2022-12-14T05:31:49.587Z,8.57
2022-12-14T05:36:07.467Z,8.58
2022-12-14T05:40:24.270Z,8.58
2022-12-14T05:44:41.203Z,8.29
2022-12-14T05:48:58.027Z,7.97
2022-12-14T05:53:15.086Z,7.87
2022-12-14T05:57:32.238Z,8.83
2022-12-14T06:01:50.717Z,8.94
2022-12-14T06:06:09.288Z,8.87
2022-12-14T06:10:26.330Z,8.79
2022-12-14T06:14:43.170Z,8.86
2022-12-14T06:19:03.782Z,8.88
2022-12-14T06:23:20.783Z,8.92
2022-12-14T06:27:37.796Z,8.89
2022-12-14T06:31:54.669Z,8.87
2022-12-14T06:36:30.400Z,8.98
2022-12-14T06:40:47.289Z,8.96
2022-12-14T06:45:04.808Z,9.01
2022-12-14T06:49:22.423Z,9.04
2022-12-14T06:53:39.309Z,8.95
2022-12-14T06:57:56.722Z,9.05
2022-12-14T07:02:13.723Z,9.14
2022-12-14T07:06:36.792Z,9.18
2022-12-14T07:10:58.910Z,9.13
2022-12-14T07:15:19.329Z,9.21
2022-12-14T07:19:36.450Z,9.22
2022-12-14T07:23:53.878Z,9.17
2022-12-14T07:28:10.735Z,9.28
2022-12-14T07:32:27.766Z,9.25
2022-12-14T07:36:44.644Z,9.21
2022-12-14T07:41:06.865Z,9.18
2022-12-14T07:45:23.715Z,8.63
2022-12-14T07:49:44.079Z,8.40
2022-12-14T07:54:02.037Z,8.68
2022-12-14T07:58:19.105Z,9.43
2022-12-14T08:02:36.321Z,8.92
2022-12-14T08:06:53.688Z,8.59
2022-12-14T08:11:12.090Z,8.49
2022-12-14T08:15:28.937Z,8.42
2022-12-14T08:19:46.220Z,8.48
2022-12-14T08:24:03.403Z,8.41
2022-12-14T08:28:21.687Z,8.37
2022-12-14T08:32:38.579Z,8.42
2022-12-14T08:36:55.711Z,8.37
2022-12-14T08:41:16.782Z,8.35
2022-12-14T08:45:33.953Z,8.44
2022-12-14T08:49:51.028Z,8.39
2022-12-14T08:54:07.875Z,8.30
2022-12-14T08:58:25.474Z,8.31
2022-12-14T09:02:42.646Z,8.29
2022-12-14T09:06:59.943Z,8.24
2022-12-14T09:11:19.363Z,8.20
2022-12-14T09:15:36.513Z,8.22
2022-12-14T09:19:53.504Z,8.19
2022-12-14T09:24:10.472Z,8.26
2022-12-14T09:28:28.226Z,8.33
2022-12-14T09:32:50.581Z,8.38
2022-12-14T09:37:07.842Z,8.48
2022-12-14T09:41:34.395Z,8.42
2022-12-14T09:45:56.307Z,8.48
2022-12-14T09:50:18.224Z,8.52
2022-12-14T09:54:38.568Z,8.57
2022-12-14T09:58:58.989Z,8.66
2022-12-14T10:04:00.128Z,8.73
2022-12-14T10:08:42.027Z,8.68
2022-12-14T10:13:32.616Z,8.85
2022-12-14T10:18:57.759Z,8.76
2022-12-14T10:23:05.281Z,8.79
2022-12-14T10:27:26.273Z,8.79
2022-12-14T10:32:06.843Z,8.80
2022-12-14T10:36:35.301Z,8.74
2022-12-14T10:41:00.396Z,8.78
2022-12-14T10:45:41.601Z,8.92
2022-12-14T10:50:05.557Z,9.69
2022-12-14T10:54:34.029Z,9.97
2022-12-14T10:59:18.771Z,10.28
2022-12-14T11:03:35.690Z,10.46
2022-12-14T11:07:52.878Z,10.58
2022-12-14T11:12:24.314Z,10.71
2022-12-14T11:16:42.021Z,11.33
2022-12-14T11:21:03.029Z,11.56
2022-12-14T11:25:47.024Z,11.28
2022-12-14T11:30:05.618Z,11.23
2022-12-14T11:34:29.795Z,10.99
2022-12-14T11:39:02.377Z,11.00
2022-12-14T11:43:35.385Z,11.21
2022-12-14T11:48:15.478Z,11.18
2022-12-14T11:52:38.443Z,11.18
2022-12-14T11:57:07.104Z,11.09
2022-12-14T12:01:26.760Z,10.84
2022-12-14T12:05:46.691Z,10.93
2022-12-14T12:10:49.887Z,10.79
2022-12-14T12:15:24.439Z,10.94
2022-12-14T12:19:41.661Z,11.03
2022-12-14T12:25:00.975Z,10.95
2022-12-14T12:29:36.886Z,10.79
2022-12-14T12:34:01.985Z,10.65
2022-12-14T12:38:35.990Z,10.65
2022-12-14T12:43:19.569Z,10.63
2022-12-14T12:47:50.912Z,9.95
2022-12-14T12:52:26.894Z,9.61
2022-12-14T12:56:49.346Z,10.14
2022-12-14T13:01:31.244Z,10.26
2022-12-14T13:05:49.446Z,10.36
2022-12-14T13:10:32.616Z,10.33
2022-12-14T13:14:51.540Z,10.31
2022-12-14T13:24:16.850Z,10.08
2022-12-14T13:28:52.154Z,10.05
2022-12-14T13:33:54.740Z,9.95
2022-12-14T13:38:52.352Z,9.98
2022-12-14T13:43:27.337Z,9.90
2022-12-14T13:47:55.616Z,9.87
2022-12-14T13:52:40.286Z,9.85
2022-12-14T13:57:12.383Z,9.91
2022-12-14T14:01:48.016Z,9.88
2022-12-14T14:06:12.100Z,9.90
2022-12-14T14:10:39.959Z,9.77
2022-12-14T14:15:08.694Z,9.79
2022-12-14T14:19:28.944Z,9.16
2022-12-14T14:24:06.558Z,8.95
2022-12-14T14:28:30.454Z,8.76
2022-12-14T14:32:47.694Z,9.46
2022-12-14T14:37:20.018Z,9.59
2022-12-14T14:41:41.894Z,9.68
2022-12-14T14:46:06.386Z,9.60
2022-12-14T14:50:33.261Z,9.54
2022-12-14T14:55:21.660Z,9.69
2022-12-14T14:59:50.828Z,9.68
2022-12-14T15:04:23.831Z,9.78
2022-12-14T15:08:56.843Z,9.71
2022-12-14T15:13:33.832Z,9.73
2022-12-14T15:17:51.232Z,9.75
2022-12-14T15:22:13.711Z,9.79
2022-12-14T15:26:34.844Z,9.77
2022-12-14T15:30:51.875Z,9.73
2022-12-14T15:35:17.436Z,9.79
2022-12-14T15:39:43.660Z,9.15
2022-12-14T15:44:01.216Z,8.93
2022-12-14T15:48:35.140Z,8.77
2022-12-14T15:52:56.405Z,9.42
2022-12-14T15:57:19.281Z,9.69
2022-12-14T16:01:54.173Z,9.69
2022-12-14T16:06:13.464Z,9.71
2022-12-14T16:10:33.162Z,9.69
2022-12-14T16:14:59.959Z,9.69
2022-12-14T16:19:28.930Z,9.67
2022-12-14T16:23:50.239Z,9.77
2022-12-14T16:28:35.933Z,9.83
2022-12-14T16:33:07.254Z,9.72
2022-12-14T16:37:32.803Z,9.51
2022-12-14T16:42:01.252Z,8.97
2022-12-14T16:46:18.553Z,8.93
2022-12-14T16:55:19.978Z,9.66
2022-12-14T16:59:44.262Z,9.68
2022-12-14T17:04:05.806Z,9.74
2022-12-14T17:08:23.234Z,9.79
2022-12-14T17:12:40.380Z,9.73
2022-12-14T17:17:01.890Z,9.67
2022-12-14T17:21:27.479Z,9.71
2022-12-14T17:25:47.896Z,9.76
2022-12-14T17:30:06.176Z,9.42
2022-12-14T17:34:24.289Z,9.02
2022-12-14T17:38:41.750Z,9.16
2022-12-14T17:42:59.057Z,9.58
2022-12-14T17:47:16.250Z,9.73
2022-12-14T17:51:41.870Z,9.84
2022-12-14T17:55:59.602Z,9.77
2022-12-14T18:00:38.985Z,9.91
2022-12-14T18:04:56.050Z,10.19
2022-12-14T18:09:13.178Z,9.20
2022-12-14T18:13:34.692Z,9.33
2022-12-14T18:17:51.924Z,10.41
2022-12-14T18:22:11.122Z,11.04
2022-12-14T18:26:28.147Z,9.98
2022-12-14T18:31:00.841Z,9.25
2022-12-14T18:35:24.681Z,9.04
2022-12-14T18:39:41.923Z,8.93
2022-12-14T18:44:00.662Z,8.77
2022-12-14T18:48:17.732Z,8.72
2022-12-14T18:52:34.739Z,8.68
2022-12-14T18:56:51.991Z,8.65
2022-12-14T19:01:16.306Z,8.63
2022-12-14T19:05:33.896Z,8.61
2022-12-14T19:09:51.107Z,8.59
2022-12-14T19:14:08.648Z,8.53
2022-12-14T19:18:25.736Z,8.50
2022-12-14T19:22:43.499Z,8.48
2022-12-14T19:27:00.626Z,8.45
2022-12-14T19:31:17.966Z,8.41
2022-12-14T19:35:35.044Z,8.40
2022-12-14T19:39:53.858Z,8.36
2022-12-14T19:44:10.936Z,8.34
2022-12-14T19:48:28.186Z,8.35
2022-12-14T19:52:45.270Z,8.34
2022-12-14T19:57:03.530Z,8.31
2022-12-14T20:01:20.716Z,8.30
2022-12-14T20:05:37.946Z,8.27
2022-12-14T20:09:55.249Z,8.31
2022-12-14T20:14:14.032Z,8.24
2022-12-14T20:18:32.366Z,8.26
2022-12-14T20:22:49.551Z,8.19
2022-12-14T20:27:06.834Z,8.23
2022-12-14T20:31:23.880Z,8.14
2022-12-14T20:35:42.378Z,8.17
2022-12-14T20:39:59.276Z,8.16
2022-12-14T20:44:16.545Z,8.17
2022-12-14T20:48:33.431Z,8.19
2022-12-14T20:52:50.387Z,8.17
2022-12-14T20:57:07.239Z,8.16
2022-12-14T21:01:24.903Z,8.17
2022-12-14T21:05:42.940Z,8.14
2022-12-14T21:09:59.983Z,8.08
2022-12-14T21:14:17.887Z,8.11
2022-12-14T21:18:34.993Z,8.08
2022-12-14T21:22:51.884Z,8.09
2022-12-14T21:27:15.158Z,8.06
2022-12-14T21:31:32.902Z,8.03
2022-12-14T21:35:49.988Z,8.04
2022-12-14T21:40:08.466Z,8.03
2022-12-14T21:44:26.106Z,8.04
2022-12-14T21:48:43.264Z,8.02
2022-12-14T21:53:00.308Z,8.00
2022-12-14T21:57:41.896Z,7.98
2022-12-14T22:02:04.702Z,7.99
2022-12-14T22:06:21.650Z,8.71
2022-12-14T22:10:38.757Z,9.01
2022-12-14T22:14:55.835Z,9.06
2022-12-14T22:19:22.856Z,9.11
2022-12-14T22:23:43.501Z,8.97
2022-12-14T22:28:01.092Z,8.47
2022-12-14T22:32:18.177Z,8.55
2022-12-14T22:36:36.975Z,9.39
2022-12-14T22:41:00.470Z,8.65
2022-12-14T22:45:17.546Z,8.42
2022-12-14T22:49:34.467Z,8.31
2022-12-14T22:53:52.344Z,8.27
2022-12-14T22:58:12.098Z,8.22
2022-12-14T23:02:30.343Z,8.20
2022-12-14T23:06:47.666Z,8.11
2022-12-14T23:11:23.524Z,8.09
2022-12-14T23:15:58.965Z,8.05
2022-12-14T23:20:35.063Z,8.02
2022-12-14T23:25:10.521Z,8.02
2022-12-14T23:29:46.706Z,8.01
2022-12-14T23:34:22.655Z,7.99
2022-12-14T23:38:58.469Z,7.94
2022-12-14T23:43:36.007Z,7.93
2022-12-14T23:48:15.568Z,7.98
2022-12-14T23:52:51.377Z,7.88
2022-12-14T23:57:27.344Z,7.90
